createdAt,value
2023-03-11T00:02:36.791Z,-0.09
2023-03-11T00:05:41.007Z,-0.10
2023-03-11T00:08:43.366Z,-0.13
2023-03-11T00:11:45.884Z,0.00
2023-03-11T00:14:48.237Z,-0.05
2023-03-11T00:17:51.244Z,-0.07
2023-03-11T00:20:54.924Z,-0.01
2023-03-11T00:24:01.115Z,-0.07
2023-03-11T00:27:04.169Z,-0.00
2023-03-11T00:30:07.764Z,0.20
2023-03-11T00:33:13.101Z,0.10
2023-03-11T00:36:25.159Z,0.29
2023-03-11T00:39:27.500Z,0.17
2023-03-11T00:42:29.993Z,0.25
2023-03-11T00:45:32.699Z,0.23
2023-03-11T00:48:35.032Z,0.34
2023-03-11T00:51:37.410Z,0.32
2023-03-11T00:54:40.085Z,0.24
2023-03-11T00:57:43.581Z,0.20
2023-03-11T01:00:46.679Z,0.22
2023-03-11T01:03:49.397Z,0.17
2023-03-11T01:06:52.248Z,-0.08
2023-03-11T01:09:54.750Z,0.04
2023-03-11T01:12:57.156Z,0.06
2023-03-11T01:15:59.822Z,0.06
2023-03-11T01:19:02.386Z,0.06
2023-03-11T01:22:04.929Z,-0.20
2023-03-11T01:25:07.511Z,-0.11
2023-03-11T01:28:09.982Z,0.09
2023-03-11T01:31:12.591Z,-0.12
2023-03-11T01:34:15.362Z,0.02
2023-03-11T01:37:17.760Z,-0.12
2023-03-11T01:40:27.116Z,-0.08
2023-03-11T01:43:39.881Z,-0.26
2023-03-11T01:46:54.932Z,-0.24
2023-03-11T01:50:01.613Z,-0.23
2023-03-11T01:53:06.001Z,-0.50
2023-03-11T01:56:09.122Z,-0.50
2023-03-11T01:59:13.789Z,-0.37
2023-03-11T02:02:37.559Z,-0.38
2023-03-11T02:05:41.263Z,-0.20
2023-03-11T02:08:45.524Z,-0.14
2023-03-11T02:11:49.095Z,-0.17
2023-03-11T02:14:54.740Z,-0.28
2023-03-11T02:17:57.293Z,-0.09
2023-03-11T02:21:30.346Z,-0.38
2023-03-11T02:24:38.219Z,-0.25
2023-03-11T02:27:42.220Z,-0.40
2023-03-11T02:30:46.486Z,-0.48
2023-03-11T02:33:50.231Z,-0.27
2023-03-11T02:36:52.744Z,-0.46
2023-03-11T02:39:56.578Z,-0.53
2023-03-11T02:43:01.221Z,-0.49
2023-03-11T02:46:05.488Z,-0.53
2023-03-11T02:49:08.316Z,-0.59
2023-03-11T02:52:10.698Z,-0.68
2023-03-11T02:55:13.178Z,-0.61
2023-03-11T02:58:15.852Z,-0.43
2023-03-11T03:01:18.483Z,-0.13
2023-03-11T03:04:22.195Z,-0.33
2023-03-11T03:07:24.604Z,-0.12
2023-03-11T03:10:27.363Z,-0.12
2023-03-11T03:13:31.087Z,-0.15
2023-03-11T03:16:33.927Z,-0.20
2023-03-11T03:19:36.386Z,-0.26
2023-03-11T03:22:40.066Z,-0.32
2023-03-11T03:25:44.708Z,-0.40
2023-03-11T03:28:47.392Z,-0.56
2023-03-11T03:31:50.183Z,-0.37
2023-03-11T03:34:58.349Z,-0.30
2023-03-11T03:38:10.289Z,-0.39
2023-03-11T03:41:15.959Z,-0.51
2023-03-11T03:44:18.682Z,-0.35
2023-03-11T03:47:22.703Z,-0.42
2023-03-11T03:50:25.395Z,-0.36
2023-03-11T03:53:30.472Z,-0.34
2023-03-11T03:56:33.484Z,-0.23
2023-03-11T03:59:36.982Z,-0.23
2023-03-11T04:02:40.173Z,-0.18
2023-03-11T04:05:46.710Z,-0.28
2023-03-11T04:08:51.997Z,-0.26
2023-03-11T04:11:55.823Z,-0.46
2023-03-11T04:14:58.403Z,-0.54
2023-03-11T04:18:01.513Z,-0.58
2023-03-11T04:21:07.540Z,-0.42
2023-03-11T04:24:10.295Z,-0.46
2023-03-11T04:27:14.268Z,-0.41
2023-03-11T04:30:17.203Z,-0.37
2023-03-11T04:33:21.951Z,-0.41
2023-03-11T04:36:24.961Z,-0.63
2023-03-11T04:39:28.584Z,-0.59
2023-03-11T04:42:31.378Z,-0.67
2023-03-11T04:45:33.979Z,-0.65
2023-03-11T04:48:38.495Z,-0.59
2023-03-11T04:51:42.788Z,-0.41
2023-03-11T04:54:46.339Z,-0.54
2023-03-11T04:57:48.654Z,-0.45
2023-03-11T05:00:53.266Z,-0.50
2023-03-11T05:03:56.533Z,-0.42
2023-03-11T05:06:58.972Z,-0.63
2023-03-11T05:10:01.849Z,-0.51
2023-03-11T05:13:05.346Z,-0.64
2023-03-11T05:16:11.505Z,-0.65
2023-03-11T05:19:46.859Z,-0.69
2023-03-11T05:22:56.657Z,-0.63
2023-03-11T05:25:59.227Z,-0.58
2023-03-11T05:29:02.646Z,-0.62
2023-03-11T05:32:05.625Z,-0.68
2023-03-11T05:35:08.720Z,-0.57
2023-03-11T05:38:11.356Z,-0.79
2023-03-11T05:41:14.010Z,-0.51
2023-03-11T05:44:18.735Z,-0.46
2023-03-11T05:47:22.934Z,-0.58
2023-03-11T05:50:26.185Z,-0.51
2023-03-11T05:53:29.248Z,-0.42
2023-03-11T05:56:31.538Z,-0.68
2023-03-11T05:59:35.644Z,-0.47
2023-03-11T06:02:41.396Z,-0.49
2023-03-11T06:05:48.813Z,-0.48
2023-03-11T06:08:51.290Z,-0.44
2023-03-11T06:11:55.684Z,-0.45
2023-03-11T06:15:01.519Z,-0.35
2023-03-11T06:18:05.288Z,-0.30
2023-03-11T06:21:08.724Z,-0.46
2023-03-11T06:24:11.398Z,-0.48
2023-03-11T06:27:14.038Z,-0.40
2023-03-11T06:30:17.512Z,-0.44
2023-03-11T06:33:28.489Z,-0.26
2023-03-11T06:36:30.990Z,-0.27
2023-03-11T06:39:34.549Z,-0.42
2023-03-11T06:42:40.067Z,-0.69
2023-03-11T06:45:47.159Z,-0.35
2023-03-11T06:48:53.552Z,-0.19
2023-03-11T06:51:57.960Z,-0.25
2023-03-11T06:55:00.479Z,-0.24
2023-03-11T06:58:04.652Z,-0.33
2023-03-11T07:01:09.449Z,-0.31
2023-03-11T07:04:14.232Z,-0.29
2023-03-11T07:07:17.972Z,-0.48
2023-03-11T07:10:20.489Z,-0.52
2023-03-11T07:13:23.756Z,-0.58
2023-03-11T07:16:28.847Z,-0.30
2023-03-11T07:19:37.868Z,-0.36
2023-03-11T07:22:40.453Z,-0.36
2023-03-11T07:25:47.568Z,-0.37
2023-03-11T07:28:49.940Z,-0.39
2023-03-11T07:31:52.398Z,-0.26
2023-03-11T07:34:55.127Z,-0.43
2023-03-11T07:37:57.544Z,-0.38
2023-03-11T07:41:00.184Z,-0.45
2023-03-11T07:44:03.739Z,-0.48
2023-03-11T07:47:06.774Z,-0.59
2023-03-11T07:50:11.575Z,-0.57
2023-03-11T07:53:13.817Z,-0.75
2023-03-11T07:56:17.128Z,-0.84
2023-03-11T07:59:19.476Z,-0.73
2023-03-11T08:02:22.017Z,-0.83
2023-03-11T08:05:24.414Z,-0.93
2023-03-11T08:08:26.926Z,-0.79
2023-03-11T08:11:31.033Z,-0.87
2023-03-11T08:14:33.530Z,-0.96
2023-03-11T08:17:35.938Z,-0.99
2023-03-11T08:20:39.043Z,-0.94
2023-03-11T08:23:42.044Z,-0.91
2023-03-11T08:26:44.988Z,-0.93
2023-03-11T08:29:47.448Z,-0.88
2023-03-11T08:32:50.492Z,-0.90
2023-03-11T08:35:53.084Z,-0.87
2023-03-11T08:38:56.079Z,-0.75
2023-03-11T08:41:59.954Z,-1.02
2023-03-11T08:45:02.342Z,-0.89
2023-03-11T08:48:04.900Z,-0.94
2023-03-11T08:51:12.718Z,-0.79
2023-03-11T08:54:15.270Z,-0.66
2023-03-11T08:57:17.779Z,-0.79
2023-03-11T09:00:20.734Z,-0.80
2023-03-11T09:03:23.072Z,-0.62
2023-03-11T09:06:25.632Z,-0.39
2023-03-11T09:09:28.669Z,-0.49
2023-03-11T09:12:31.352Z,-0.43
2023-03-11T09:15:35.043Z,-0.56
2023-03-11T09:18:37.431Z,-0.37
2023-03-11T09:21:40.087Z,-0.48
2023-03-11T09:24:42.510Z,-0.58
2023-03-11T09:27:44.888Z,-0.80
2023-03-11T09:30:47.359Z,-0.92
2023-03-11T09:33:50.230Z,-0.60
2023-03-11T09:36:52.598Z,-0.51
2023-03-11T09:39:55.174Z,-0.38
2023-03-11T09:43:05.694Z,-0.44
2023-03-11T09:46:33.105Z,-0.37
2023-03-11T09:49:53.726Z,-0.42
2023-03-11T09:53:04.122Z,-0.40
2023-03-11T09:56:08.746Z,-0.42
2023-03-11T09:59:30.990Z,-0.56
2023-03-11T10:02:36.518Z,-0.48
2023-03-11T10:05:39.251Z,-0.30
2023-03-11T10:08:53.740Z,-0.14
2023-03-11T10:12:08.275Z,-0.03
2023-03-11T10:15:24.458Z,-0.09
2023-03-11T10:18:41.971Z,-0.16
2023-03-11T10:22:01.993Z,-0.27
2023-03-11T10:25:14.698Z,-0.16
2023-03-11T10:28:21.685Z,-0.44
2023-03-11T10:31:30.832Z,-0.50
2023-03-11T10:35:17.586Z,-0.45
2023-03-11T10:38:30.330Z,-0.43
2023-03-11T10:41:52.602Z,-0.27
2023-03-11T10:44:55.426Z,-0.23
2023-03-11T10:47:58.314Z,-0.37
2023-03-11T10:51:11.415Z,-0.29
2023-03-11T10:54:36.393Z,-0.39
2023-03-11T10:57:40.067Z,-0.38
2023-03-11T11:00:42.981Z,-0.43
2023-03-11T11:03:50.635Z,-0.41
2023-03-11T11:06:53.551Z,-0.31
2023-03-11T11:10:23.605Z,-0.19
2023-03-11T11:13:30.353Z,-0.04
2023-03-11T11:16:34.402Z,-0.02
2023-03-11T11:19:38.009Z,0.10
2023-03-11T11:22:50.721Z,-0.04
2023-03-11T11:26:05.140Z,-0.05
2023-03-11T11:29:10.331Z,0.03
2023-03-11T11:32:15.637Z,-0.03
2023-03-11T11:35:20.073Z,-0.33
2023-03-11T11:38:24.640Z,-0.27
2023-03-11T11:41:27.925Z,0.05
2023-03-11T11:44:35.021Z,0.02
2023-03-11T11:47:40.805Z,0.02
2023-03-11T11:50:52.002Z,-0.00
2023-03-11T11:54:19.634Z,0.28
2023-03-11T11:57:23.356Z,0.41
2023-03-11T12:01:10.833Z,0.41
2023-03-11T12:04:19.447Z,0.55
2023-03-11T12:07:49.060Z,0.69
2023-03-11T12:11:02.202Z,0.88
2023-03-11T12:14:16.274Z,0.95
2023-03-11T12:17:20.807Z,1.14
2023-03-11T12:20:32.907Z,1.03
2023-03-11T12:23:50.374Z,1.24
2023-03-11T12:26:53.495Z,0.91
2023-03-11T12:30:01.062Z,0.91
2023-03-11T12:33:10.024Z,0.77
2023-03-11T12:36:25.838Z,0.71
2023-03-11T12:39:31.222Z,0.69
2023-03-11T12:42:41.152Z,0.64
2023-03-11T12:45:50.787Z,0.61
2023-03-11T12:49:12.532Z,0.54
2023-03-11T12:52:14.831Z,0.39
2023-03-11T12:55:17.367Z,0.59
2023-03-11T12:58:35.510Z,0.67
2023-03-11T13:01:48.744Z,0.62
2023-03-11T13:05:07.792Z,0.43
2023-03-11T13:08:24.070Z,0.28
2023-03-11T13:11:32.263Z,0.24
2023-03-11T13:14:35.051Z,0.16
2023-03-11T13:17:37.622Z,0.21
2023-03-11T13:20:43.190Z,0.14
2023-03-11T13:23:45.791Z,-0.10
2023-03-11T13:26:54.020Z,-0.01
2023-03-11T13:30:01.432Z,-0.18
2023-03-11T13:33:59.577Z,-0.24
2023-03-11T13:37:17.776Z,-0.23
2023-03-11T13:40:39.881Z,-0.24
2023-03-11T13:43:49.918Z,-0.12
2023-03-11T13:47:16.369Z,-0.03
2023-03-11T13:50:27.161Z,-0.03
2023-03-11T13:53:40.894Z,-0.04
2023-03-11T13:57:03.319Z,-0.17
2023-03-11T14:00:18.127Z,0.32
2023-03-11T14:03:23.149Z,0.28
2023-03-11T14:06:25.606Z,0.12
2023-03-11T14:09:29.724Z,0.34
2023-03-11T14:12:34.919Z,0.04
2023-03-11T14:15:47.807Z,0.21
2023-03-11T14:19:12.348Z,0.40
2023-03-11T14:22:16.121Z,0.18
2023-03-11T14:25:31.253Z,0.24
2023-03-11T14:28:43.561Z,0.20
2023-03-11T14:31:47.831Z,0.11
2023-03-11T14:34:50.175Z,0.11
2023-03-11T14:37:52.830Z,-0.01
2023-03-11T14:41:03.581Z,0.09
2023-03-11T14:44:06.772Z,0.05
2023-03-11T14:47:15.602Z,-0.11
2023-03-11T14:50:24.415Z,0.01
2023-03-11T14:53:32.028Z,-0.09
2023-03-11T14:56:38.139Z,-0.06
2023-03-11T14:59:40.961Z,0.05
2023-03-11T15:02:55.902Z,0.11
2023-03-11T15:06:10.367Z,-0.27
2023-03-11T15:09:30.862Z,-0.31
2023-03-11T15:12:35.726Z,-0.31
2023-03-11T15:15:38.218Z,-0.18
2023-03-11T15:18:42.777Z,-0.18
2023-03-11T15:21:49.368Z,-0.00
2023-03-11T15:24:54.520Z,-0.26
2023-03-11T15:27:57.359Z,-0.47
2023-03-11T15:31:31.458Z,-0.37
2023-03-11T15:34:35.414Z,-0.44
2023-03-11T15:37:37.965Z,-0.62
2023-03-11T15:40:45.572Z,-0.66
2023-03-11T15:43:48.952Z,-0.52
2023-03-11T15:46:51.379Z,-0.62
2023-03-11T15:49:53.833Z,-0.41
2023-03-11T15:52:57.723Z,-0.46
2023-03-11T15:56:07.277Z,-0.30
2023-03-11T15:59:15.600Z,-0.24
2023-03-11T16:02:30.626Z,-0.25
2023-03-11T16:05:32.974Z,-0.23
2023-03-11T16:08:35.769Z,-0.01
2023-03-11T16:11:38.719Z,-0.09
2023-03-11T16:14:41.131Z,-0.08
2023-03-11T16:17:49.835Z,-0.13
2023-03-11T16:20:54.055Z,-0.28
2023-03-11T16:23:56.380Z,-0.43
2023-03-11T16:26:59.095Z,-0.68
2023-03-11T16:30:01.657Z,-0.89
2023-03-11T16:33:05.168Z,-0.95
2023-03-11T16:36:08.096Z,-1.00
2023-03-11T16:39:10.480Z,-1.04
2023-03-11T16:42:12.802Z,-1.14
2023-03-11T16:45:16.640Z,-1.20
2023-03-11T16:48:18.980Z,-1.30
2023-03-11T16:51:21.349Z,-1.67
2023-03-11T16:54:23.597Z,-1.48
2023-03-11T16:57:26.056Z,-1.60
2023-03-11T17:00:28.378Z,-1.54
2023-03-11T17:03:41.026Z,-1.64
2023-03-11T17:06:44.613Z,-1.64
2023-03-11T17:09:46.903Z,-1.66
2023-03-11T17:12:49.213Z,-1.62
2023-03-11T17:16:01.446Z,-1.73
2023-03-11T17:19:04.120Z,-1.74
2023-03-11T17:22:06.519Z,-1.57
2023-03-11T17:25:09.099Z,-1.52
2023-03-11T17:28:11.630Z,-1.76
2023-03-11T17:31:16.377Z,-1.68
2023-03-11T17:34:19.214Z,-1.92
2023-03-11T17:37:22.076Z,-1.93
2023-03-11T17:40:24.660Z,-1.78
2023-03-11T17:43:27.142Z,-1.92
2023-03-11T17:46:29.750Z,-1.83
2023-03-11T17:49:32.382Z,-2.10
2023-03-11T17:52:34.978Z,-1.98
2023-03-11T17:55:40.860Z,-2.00
2023-03-11T17:58:43.672Z,-2.02
2023-03-11T18:01:46.136Z,-1.99
2023-03-11T18:04:54.699Z,-2.04
2023-03-11T18:07:57.132Z,-2.06
2023-03-11T18:11:03.203Z,-2.00
2023-03-11T18:14:07.288Z,-1.97
2023-03-11T18:17:09.751Z,-1.92
2023-03-11T18:20:14.004Z,-1.96
2023-03-11T18:23:16.725Z,-1.89
2023-03-11T18:26:20.393Z,-1.74
2023-03-11T18:29:24.346Z,-1.68
2023-03-11T18:32:27.046Z,-1.69
2023-03-11T18:35:29.893Z,-1.49
2023-03-11T18:38:32.310Z,-1.49
2023-03-11T18:41:36.127Z,-1.75
2023-03-11T18:44:38.530Z,-1.75
2023-03-11T18:47:40.911Z,-1.73
2023-03-11T18:50:43.290Z,-1.37
2023-03-11T18:53:45.713Z,-1.24
2023-03-11T18:56:48.185Z,-1.41
2023-03-11T18:59:52.098Z,-1.64
2023-03-11T19:02:54.681Z,-2.09
2023-03-11T19:05:56.973Z,-2.16
2023-03-11T19:08:59.479Z,-2.41
2023-03-11T19:12:01.983Z,-2.44
2023-03-11T19:15:04.780Z,-2.59
2023-03-11T19:18:07.910Z,-2.59
2023-03-11T19:21:12.101Z,-2.36
2023-03-11T19:24:14.838Z,-2.24
2023-03-11T19:27:17.352Z,-2.22
2023-03-11T19:30:21.251Z,-2.58
2023-03-11T19:33:23.871Z,-2.74
2023-03-11T19:36:27.702Z,-2.62
2023-03-11T19:39:30.285Z,-2.41
2023-03-11T19:42:35.670Z,-2.52
2023-03-11T19:45:39.852Z,-2.48
2023-03-11T19:48:42.209Z,-2.47
2023-03-11T19:51:50.236Z,-2.45
2023-03-11T19:54:53.171Z,-2.53
2023-03-11T19:57:55.555Z,-2.55
2023-03-11T20:00:58.851Z,-2.67
2023-03-11T20:04:01.258Z,-2.68
2023-03-11T20:07:05.283Z,-2.73
2023-03-11T20:10:08.022Z,-2.85
2023-03-11T20:13:10.454Z,-3.17
2023-03-11T20:16:18.381Z,-3.01
2023-03-11T20:19:21.223Z,-3.05
2023-03-11T20:22:23.599Z,-3.22
2023-03-11T20:25:26.524Z,-3.06
2023-03-11T20:28:28.986Z,-3.19
2023-03-11T20:31:32.075Z,-3.18
2023-03-11T20:34:34.911Z,-3.00
2023-03-11T20:37:37.329Z,-3.06
2023-03-11T20:40:39.719Z,-2.99
2023-03-11T20:43:42.252Z,-3.05
2023-03-11T20:46:46.447Z,-3.04
2023-03-11T20:49:48.897Z,-3.15
2023-03-11T20:52:51.836Z,-3.25
2023-03-11T20:55:54.769Z,-3.34
2023-03-11T20:58:59.578Z,-2.87
2023-03-11T21:02:02.372Z,-3.07
2023-03-11T21:05:06.161Z,-2.91
2023-03-11T21:08:08.624Z,-3.24
2023-03-11T21:11:11.067Z,-3.16
2023-03-11T21:14:18.589Z,-3.10
2023-03-11T21:17:21.188Z,-2.95
2023-03-11T21:20:24.404Z,-3.03
2023-03-11T21:23:27.104Z,-2.67
2023-03-11T21:26:30.197Z,-2.62
2023-03-11T21:29:32.629Z,-2.68
2023-03-11T21:32:35.122Z,-2.70
2023-03-11T21:35:37.558Z,-3.00
2023-03-11T21:38:40.865Z,-2.86
2023-03-11T21:41:43.571Z,-2.83
2023-03-11T21:44:45.987Z,-2.57
2023-03-11T21:47:48.389Z,-2.57
2023-03-11T21:50:52.575Z,-3.04
2023-03-11T21:53:54.985Z,-2.50
2023-03-11T21:56:57.496Z,-2.41
2023-03-11T21:59:59.854Z,-2.30
2023-03-11T22:03:02.291Z,-2.31
2023-03-11T22:06:08.112Z,-2.22
2023-03-11T22:09:10.598Z,-2.20
2023-03-11T22:12:12.987Z,-2.02
2023-03-11T22:15:15.624Z,-1.97
2023-03-11T22:18:18.161Z,-1.90
2023-03-11T22:21:21.190Z,-1.76
2023-03-11T22:24:23.578Z,-1.82
2023-03-11T22:27:25.906Z,-1.75
2023-03-11T22:30:28.402Z,-2.10
2023-03-11T22:33:30.830Z,-1.90
2023-03-11T22:36:33.159Z,-2.07
2023-03-11T22:39:35.657Z,-2.14
2023-03-11T22:42:38.335Z,-2.02
2023-03-11T22:45:40.779Z,-2.21
2023-03-11T22:48:43.343Z,-2.24
2023-03-11T22:51:45.776Z,-2.22
2023-03-11T22:54:48.374Z,-2.23
2023-03-11T22:57:50.810Z,-2.22
2023-03-11T23:00:53.283Z,-2.23
2023-03-11T23:03:55.848Z,-2.24
2023-03-11T23:06:58.287Z,-2.16
2023-03-11T23:10:00.906Z,-1.92
2023-03-11T23:13:03.290Z,-1.95
2023-03-11T23:16:12.689Z,-1.72
2023-03-11T23:19:15.839Z,-1.87
2023-03-11T23:22:18.332Z,-1.66
2023-03-11T23:25:20.720Z,-1.70
2023-03-11T23:28:23.079Z,-1.63
2023-03-11T23:31:26.558Z,-1.58
2023-03-11T23:34:29.040Z,-1.43
2023-03-11T23:37:31.422Z,-1.40
2023-03-11T23:40:34.005Z,-1.48
2023-03-11T23:43:36.536Z,-1.36
2023-03-11T23:46:39.484Z,-1.56
2023-03-11T23:49:42.431Z,-1.50
2023-03-11T23:52:44.863Z,-1.49
2023-03-11T23:55:47.134Z,-1.41
2023-03-11T23:58:49.443Z,-1.60
